sensor_id;sensor_type;location;lat;lon;timestamp;pressure;altitude;pressure_sealevel;temperature;humidity
5988;BME280;3021;51.000;6.980;2024-01-30T00:01:52;67333.44;;;9.28;100.00
5988;BME280;3021;51.000;6.980;2024-01-30T00:04:17;67332.84;;;9.28;100.00
5988;BME280;3021;51.000;6.980;2024-01-30T00:06:44;67340.94;;;9.35;100.00
5988;BME280;3021;51.000;6.980;2024-01-30T00:09:09;67333.28;;;9.26;100.00
5988;BME280;3021;51.000;6.980;2024-01-30T00:11:38;67329.97;;;9.25;100.00
5988;BME280;3021;51.000;6.980;2024-01-30T00:14:04;67316.84;;;9.16;100.00
5988;BME280;3021;51.000;6.980;2024-01-30T00:16:30;67319.44;;;9.13;100.00
5988;BME280;3021;51.000;6.980;2024-01-30T00:18:56;67314.38;;;9.11;100.00
5988;BME280;3021;51.000;6.980;2024-01-30T00:21:21;67306.28;;;9.04;100.00
5988;BME280;3021;51.000;6.980;2024-01-30T00:23:47;67308.03;;;9.06;100.00
5988;BME280;3021;51.000;6.980;2024-01-30T00:26:12;67304.00;;;9.02;100.00
5988;BME280;3021;51.000;6.980;2024-01-30T00:28:42;67297.66;;;8.96;100.00
5988;BME280;3021;51.000;6.980;2024-01-30T00:31:08;67303.69;;;8.97;100.00
5988;BME280;3021;51.000;6.980;2024-01-30T00:33:37;67292.59;;;8.94;100.00
5988;BME280;3021;51.000;6.980;2024-01-30T00:36:03;67295.31;;;8.94;100.00
5988;BME280;3021;51.000;6.980;2024-01-30T00:38:28;67293.03;;;8.92;100.00
5988;BME280;3021;51.000;6.980;2024-01-30T00:40:53;67291.16;;;8.88;100.00
5988;BME280;3021;51.000;6.980;2024-01-30T00:43:19;67288.41;;;8.88;100.00
5988;BME280;3021;51.000;6.980;2024-01-30T00:45:45;67294.03;;;8.91;100.00
5988;BME280;3021;51.000;6.980;2024-01-30T00:48:10;67297.06;;;8.96;100.00
5988;BME280;3021;51.000;6.980;2024-01-30T00:50:35;67290.56;;;8.88;100.00
5988;BME280;3021;51.000;6.980;2024-01-30T00:53:01;67298.06;;;8.94;100.00
5988;BME280;3021;51.000;6.980;2024-01-30T00:55:26;67293.59;;;8.93;100.00
5988;BME280;3021;51.000;6.980;2024-01-30T00:57:51;67295.75;;;8.92;100.00
5988;BME280;3021;51.000;6.980;2024-01-30T01:00:17;67293.47;;;8.90;100.00
5988;BME280;3021;51.000;6.980;2024-01-30T01:02:43;67296.66;;;8.98;100.00
5988;BME280;3021;51.000;6.980;2024-01-30T01:05:08;67312.66;;;9.10;100.00
5988;BME280;3021;51.000;6.980;2024-01-30T01:07:34;67312.06;;;9.09;100.00
5988;BME280;3021;51.000;6.980;2024-01-30T01:09:59;67314.25;;;9.09;100.00
5988;BME280;3021;51.000;6.980;2024-01-30T01:12:25;67317.69;;;9.12;100.00
5988;BME280;3021;51.000;6.980;2024-01-30T01:14:50;67317.84;;;9.14;100.00
5988;BME280;3021;51.000;6.980;2024-01-30T01:17:15;67315.53;;;9.12;100.00
5988;BME280;3021;51.000;6.980;2024-01-30T01:19:41;67321.31;;;9.18;100.00
5988;BME280;3021;51.000;6.980;2024-01-30T01:22:06;67317.84;;;9.14;100.00
5988;BME280;3021;51.000;6.980;2024-01-30T01:24:32;67318.44;;;9.15;100.00
5988;BME280;3021;51.000;6.980;2024-01-30T01:27:00;67325.34;;;9.21;100.00
5988;BME280;3021;51.000;6.980;2024-01-30T01:29:25;67333.88;;;9.26;100.00
5988;BME280;3021;51.000;6.980;2024-01-30T01:31:55;67336.31;;;9.31;100.00
5988;BME280;3021;51.000;6.980;2024-01-30T01:34:21;67340.94;;;9.35;100.00
5988;BME280;3021;51.000;6.980;2024-01-30T01:36:46;67339.19;;;9.33;100.00
5988;BME280;3021;51.000;6.980;2024-01-30T01:39:12;67336.88;;;9.31;100.00
5988;BME280;3021;51.000;6.980;2024-01-30T01:41:37;67332.41;;;9.30;100.00
5988;BME280;3021;51.000;6.980;2024-01-30T01:44:02;67339.78;;;9.34;100.00
5988;BME280;3021;51.000;6.980;2024-01-30T01:46:30;67347.69;;;9.39;100.00
5988;BME280;3021;51.000;6.980;2024-01-30T01:48:56;67345.13;;;9.41;100.00
5988;BME280;3021;51.000;6.980;2024-01-30T01:51:22;67354.06;;;9.44;100.00
5988;BME280;3021;51.000;6.980;2024-01-30T01:53:48;67350.91;;;9.46;100.00
5988;BME280;3021;51.000;6.980;2024-01-30T01:56:14;67355.38;;;9.48;100.00
5988;BME280;3021;51.000;6.980;2024-01-30T01:58:40;67354.22;;;9.47;100.00
5988;BME280;3021;51.000;6.980;2024-01-30T02:01:07;67362.72;;;9.52;100.00
5988;BME280;3021;51.000;6.980;2024-01-30T02:03:34;67362.28;;;9.54;100.00
5988;BME280;3021;51.000;6.980;2024-01-30T02:05:59;67360.00;;;9.52;100.00
5988;BME280;3021;51.000;6.980;2024-01-30T02:08:25;67361.00;;;9.50;100.00
5988;BME280;3021;51.000;6.980;2024-01-30T02:10:51;67361.56;;;9.51;100.00
5988;BME280;3021;51.000;6.980;2024-01-30T02:13:16;67361.72;;;9.54;100.00
5988;BME280;3021;51.000;6.980;2024-01-30T02:15:41;67371.97;;;9.60;100.00
5988;BME280;3021;51.000;6.980;2024-01-30T02:18:07;67364.59;;;9.56;100.00
5988;BME280;3021;51.000;6.980;2024-01-30T02:20:34;67364.03;;;9.56;100.00
5988;BME280;3021;51.000;6.980;2024-01-30T02:23:00;67364.59;;;9.56;100.00
5988;BME280;3021;51.000;6.980;2024-01-30T02:25:39;67369.22;;;9.60;100.00
5988;BME280;3021;51.000;6.980;2024-01-30T02:28:13;67365.19;;;9.57;100.00
5988;BME280;3021;51.000;6.980;2024-01-30T02:30:45;67369.06;;;9.58;100.00
5988;BME280;3021;51.000;6.980;2024-01-30T02:33:11;67369.81;;;9.61;100.00
5988;BME280;3021;51.000;6.980;2024-01-30T02:35:36;67370.38;;;9.61;100.00
5988;BME280;3021;51.000;6.980;2024-01-30T02:38:02;67372.84;;;9.66;100.00
5988;BME280;3021;51.000;6.980;2024-01-30T02:40:27;67376.31;;;9.69;100.00
5988;BME280;3021;51.000;6.980;2024-01-30T02:42:52;67381.34;;;9.71;100.00
5988;BME280;3021;51.000;6.980;2024-01-30T02:45:18;67387.53;;;9.74;100.00
5988;BME280;3021;51.000;6.980;2024-01-30T02:47:43;67381.34;;;9.71;100.00
5988;BME280;3021;51.000;6.980;2024-01-30T02:50:09;67390.88;;;9.75;100.00
5988;BME280;3021;51.000;6.980;2024-01-30T02:52:34;67385.25;;;9.72;100.00
5988;BME280;3021;51.000;6.980;2024-01-30T02:55:00;67387.13;;;9.76;100.00
5988;BME280;3021;51.000;6.980;2024-01-30T02:57:25;67384.81;;;9.74;100.00
5988;BME280;3021;51.000;6.980;2024-01-30T02:59:51;67387.13;;;9.76;100.00
5988;BME280;3021;51.000;6.980;2024-01-30T03:02:16;67392.16;;;9.78;100.00
5988;BME280;3021;51.000;6.980;2024-01-30T03:04:41;67388.25;;;9.77;100.00
5988;BME280;3021;51.000;6.980;2024-01-30T03:07:07;67391.16;;;9.80;100.00
5988;BME280;3021;51.000;6.980;2024-01-30T03:09:33;67387.13;;;9.76;100.00
5988;BME280;3021;51.000;6.980;2024-01-30T03:11:58;67390.59;;;9.79;100.00
5988;BME280;3021;51.000;6.980;2024-01-30T03:14:23;67394.63;;;9.83;100.00
5988;BME280;3021;51.000;6.980;2024-01-30T03:16:49;67400.25;;;9.85;100.00
5988;BME280;3021;51.000;6.980;2024-01-30T03:19:14;67391.75;;;9.80;100.00
5988;BME280;3021;51.000;6.980;2024-01-30T03:21:39;67398.09;;;9.86;100.00
5988;BME280;3021;51.000;6.980;2024-01-30T03:24:05;67390.03;;;9.79;100.00
5988;BME280;3021;51.000;6.980;2024-01-30T03:26:30;67391.16;;;9.80;100.00
5988;BME280;3021;51.000;6.980;2024-01-30T03:28:56;67398.09;;;9.86;100.00
5988;BME280;3021;51.000;6.980;2024-01-30T03:31:21;67403.72;;;9.89;100.00
5988;BME280;3021;51.000;6.980;2024-01-30T03:33:47;67402.13;;;9.90;100.00
5988;BME280;3021;51.000;6.980;2024-01-30T03:36:12;67399.84;;;9.88;100.00
5988;BME280;3021;51.000;6.980;2024-01-30T03:38:37;67398.81;;;9.89;100.00
5988;BME280;3021;51.000;6.980;2024-01-30T03:41:03;67402.69;;;9.90;100.00
5988;BME280;3021;51.000;6.980;2024-01-30T03:43:28;67399.25;;;9.87;100.00
5988;BME280;3021;51.000;6.980;2024-01-30T03:45:53;67402.69;;;9.90;100.00
5988;BME280;3021;51.000;6.980;2024-01-30T03:48:20;67410.22;;;9.97;100.00
5988;BME280;3021;51.000;6.980;2024-01-30T03:50:46;67395.22;;;9.83;100.00
5988;BME280;3021;51.000;6.980;2024-01-30T03:53:11;67399.25;;;9.87;100.00
5988;BME280;3021;51.000;6.980;2024-01-30T03:55:37;67394.50;;;9.80;100.00
5988;BME280;3021;51.000;6.980;2024-01-30T03:58:02;67396.78;;;9.82;100.00
5988;BME280;3021;51.000;6.980;2024-01-30T04:00:27;67388.41;;;9.80;100.00
5988;BME280;3021;51.000;6.980;2024-01-30T04:02:53;67397.34;;;9.83;100.00
5988;BME280;3021;51.000;6.980;2024-01-30T04:05:18;67390.44;;;9.77;100.00
5988;BME280;3021;51.000;6.980;2024-01-30T04:07:43;67382.50;;;9.72;100.00
5988;BME280;3021;51.000;6.980;2024-01-30T04:10:09;67378.44;;;9.68;100.00
5988;BME280;3021;51.000;6.980;2024-01-30T04:12:35;67373.84;;;9.64;100.00
5988;BME280;3021;51.000;6.980;2024-01-30T04:15:01;67372.69;;;9.63;100.00
5988;BME280;3021;51.000;6.980;2024-01-30T04:17:26;67378.88;;;9.66;100.00
5988;BME280;3021;51.000;6.980;2024-01-30T04:19:54;67372.69;;;9.63;100.00
5988;BME280;3021;51.000;6.980;2024-01-30T04:22:19;67367.34;;;9.56;100.00
5988;BME280;3021;51.000;6.980;2024-01-30T04:24:44;67358.25;;;9.50;100.00
5988;BME280;3021;51.000;6.980;2024-01-30T04:27:10;67358.25;;;9.50;100.00
5988;BME280;3021;51.000;6.980;2024-01-30T04:29:35;67359.41;;;9.51;100.00
5988;BME280;3021;51.000;6.980;2024-01-30T04:32:00;67345.41;;;9.37;100.00
5988;BME280;3021;51.000;6.980;2024-01-30T04:34:26;67342.09;;;9.36;100.00
5988;BME280;3021;51.000;6.980;2024-01-30T04:36:51;67344.25;;;9.36;100.00
5988;BME280;3021;51.000;6.980;2024-01-30T04:39:16;67342.94;;;9.32;100.00
5988;BME280;3021;51.000;6.980;2024-01-30T04:41:42;67326.06;;;9.24;100.00
5988;BME280;3021;51.000;6.980;2024-01-30T04:44:07;67331.53;;;9.24;100.00
5988;BME280;3021;51.000;6.980;2024-01-30T04:46:32;67328.81;;;9.24;100.00
5988;BME280;3021;51.000;6.980;2024-01-30T04:48:59;67338.91;;;9.28;100.00
5988;BME280;3021;51.000;6.980;2024-01-30T04:51:25;67331.13;;;9.26;100.00
5988;BME280;3021;51.000;6.980;2024-01-30T04:53:50;67332.84;;;9.28;100.00
5988;BME280;3021;51.000;6.980;2024-01-30T04:56:15;67332.69;;;9.25;100.00
5988;BME280;3021;51.000;6.980;2024-01-30T04:58:41;67316.69;;;9.13;100.00
5988;BME280;3021;51.000;6.980;2024-01-30T05:01:06;67310.34;;;9.08;100.00
5988;BME280;3021;51.000;6.980;2024-01-30T05:03:34;67305.72;;;9.04;100.00
5988;BME280;3021;51.000;6.980;2024-01-30T05:06:00;67308.19;;;9.08;100.00
5988;BME280;3021;51.000;6.980;2024-01-30T05:08:25;67315.53;;;9.12;100.00
5988;BME280;3021;51.000;6.980;2024-01-30T05:10:51;67313.09;;;9.08;100.00
5988;BME280;3021;51.000;6.980;2024-01-30T05:13:16;67306.00;;;8.99;100.00
5988;BME280;3021;51.000;6.980;2024-01-30T05:15:41;67303.28;;;8.99;100.00
5988;BME280;3021;51.000;6.980;2024-01-30T05:18:07;67293.59;;;8.93;100.00
5988;BME280;3021;51.000;6.980;2024-01-30T05:20:32;67299.81;;;8.96;100.00
5988;BME280;3021;51.000;6.980;2024-01-30T05:22:57;67303.28;;;8.99;100.00
5988;BME280;3021;51.000;6.980;2024-01-30T05:25:23;67300.53;;;8.99;100.00
5988;BME280;3021;51.000;6.980;2024-01-30T05:27:48;67306.00;;;8.99;100.00
5988;BME280;3021;51.000;6.980;2024-01-30T05:30:14;67297.81;;;8.99;100.00
5988;BME280;3021;51.000;6.980;2024-01-30T05:32:40;67303.41;;;9.02;100.00
5988;BME280;3021;51.000;6.980;2024-01-30T05:35:05;67296.50;;;8.95;100.00
5988;BME280;3021;51.000;6.980;2024-01-30T05:37:33;67291.59;;;8.86;100.00
5988;BME280;3021;51.000;6.980;2024-01-30T05:39:58;67287.13;;;8.85;100.00
5988;BME280;3021;51.000;6.980;2024-01-30T05:42:23;67296.94;;;8.93;100.00
5988;BME280;3021;51.000;6.980;2024-01-30T05:44:49;67300.94;;;8.97;100.00
5988;BME280;3021;51.000;6.980;2024-01-30T05:47:15;67301.38;;;8.95;100.00
5988;BME280;3021;51.000;6.980;2024-01-30T05:49:40;67305.56;;;9.01;100.00
5988;BME280;3021;51.000;6.980;2024-01-30T05:52:06;67298.81;;;8.97;100.00
5988;BME280;3021;51.000;6.980;2024-01-30T05:54:32;67301.69;;;9.00;100.00
5988;BME280;3021;51.000;6.980;2024-01-30T05:56:57;67297.66;;;8.96;100.00
5988;BME280;3021;51.000;6.980;2024-01-30T05:59:22;67305.56;;;9.01;100.00
5988;BME280;3021;51.000;6.980;2024-01-30T06:01:48;67298.81;;;8.97;100.00
5988;BME280;3021;51.000;6.980;2024-01-30T06:04:14;67294.03;;;8.91;100.00
5988;BME280;3021;51.000;6.980;2024-01-30T06:06:40;67286.25;;;8.89;100.00
5988;BME280;3021;51.000;6.980;2024-01-30T06:09:05;67292.47;;;8.92;100.00
5988;BME280;3021;51.000;6.980;2024-01-30T06:11:31;67297.66;;;8.96;100.00
5988;BME280;3021;51.000;6.980;2024-01-30T06:13:57;67302.28;;;9.01;100.00
5988;BME280;3021;51.000;6.980;2024-01-30T06:16:22;67306.00;;;8.99;100.00
5988;BME280;3021;51.000;6.980;2024-01-30T06:18:48;67299.38;;;8.98;100.00
5988;BME280;3021;51.000;6.980;2024-01-30T06:21:13;67299.38;;;8.98;100.00
5988;BME280;3021;51.000;6.980;2024-01-30T06:23:39;67301.53;;;8.97;100.00
5988;BME280;3021;51.000;6.980;2024-01-30T06:26:06;67309.03;;;9.04;100.00
5988;BME280;3021;51.000;6.980;2024-01-30T06:28:31;67307.31;;;9.03;100.00
5988;BME280;3021;51.000;6.980;2024-01-30T06:30:57;67306.72;;;9.02;100.00
5988;BME280;3021;51.000;6.980;2024-01-30T06:33:22;67308.63;;;9.06;100.00
5988;BME280;3021;51.000;6.980;2024-01-30T06:35:47;67310.91;;;9.08;100.00
5988;BME280;3021;51.000;6.980;2024-01-30T06:38:13;67319.59;;;9.16;100.00
5988;BME280;3021;51.000;6.980;2024-01-30T06:40:41;67323.63;;;9.20;100.00
5988;BME280;3021;51.000;6.980;2024-01-30T06:43:06;67324.78;;;9.21;100.00
5988;BME280;3021;51.000;6.980;2024-01-30T06:45:33;67336.88;;;9.31;100.00
5988;BME280;3021;51.000;6.980;2024-01-30T06:47:59;67340.94;;;9.35;100.00
5988;BME280;3021;51.000;6.980;2024-01-30T06:50:25;67342.66;;;9.37;100.00
5988;BME280;3021;51.000;6.980;2024-01-30T06:52:50;67348.28;;;9.39;100.00
5988;BME280;3021;51.000;6.980;2024-01-30T06:55:16;67347.28;;;9.41;100.00
5988;BME280;3021;51.000;6.980;2024-01-30T06:57:41;67353.63;;;9.46;100.00
5988;BME280;3021;51.000;6.980;2024-01-30T07:00:07;67352.47;;;9.45;100.00
5988;BME280;3021;51.000;6.980;2024-01-30T07:02:33;67352.63;;;9.48;100.00
5988;BME280;3021;51.000;6.980;2024-01-30T07:04:58;67364.03;;;9.56;100.00
5988;BME280;3021;51.000;6.980;2024-01-30T07:07:23;67367.34;;;9.56;100.00
5988;BME280;3021;51.000;6.980;2024-01-30T07:09:49;67363.00;;;9.57;100.00
5988;BME280;3021;51.000;6.980;2024-01-30T07:12:17;67365.03;;;9.54;100.00
5988;BME280;3021;51.000;6.980;2024-01-30T07:14:43;67362.28;;;9.54;100.00
5988;BME280;3021;51.000;6.980;2024-01-30T07:17:08;67366.19;;;9.55;100.00
5988;BME280;3021;51.000;6.980;2024-01-30T07:19:33;67369.50;;;9.56;100.00
5988;BME280;3021;51.000;6.980;2024-01-30T07:22:00;67369.06;;;9.58;100.00
5988;BME280;3021;51.000;6.980;2024-01-30T07:24:25;67369.66;;;9.58;100.00
5988;BME280;3021;51.000;6.980;2024-01-30T07:26:51;67368.47;;;9.57;100.00
5988;BME280;3021;51.000;6.980;2024-01-30T07:29:16;67364.03;;;9.56;100.00
5988;BME280;3021;51.000;6.980;2024-01-30T07:31:42;67372.09;;;9.63;100.00
5988;BME280;3021;51.000;6.980;2024-01-30T07:34:08;67379.47;;;9.67;100.00
5988;BME280;3021;51.000;6.980;2024-01-30T07:36:34;67375.59;;;9.66;100.00
5988;BME280;3021;51.000;6.980;2024-01-30T07:38:59;67381.91;;;9.72;100.00
5988;BME280;3021;51.000;6.980;2024-01-30T07:41:25;67386.53;;;9.76;100.00
5988;BME280;3021;51.000;6.980;2024-01-30T07:43:50;67392.16;;;9.78;100.00
5988;BME280;3021;51.000;6.980;2024-01-30T07:46:15;67398.09;;;9.86;100.00
5988;BME280;3021;51.000;6.980;2024-01-30T07:48:41;67405.75;;;9.95;100.00
5988;BME280;3021;51.000;6.980;2024-01-30T07:51:06;67413.84;;;10.02;100.00
5988;BME280;3021;51.000;6.980;2024-01-30T07:53:32;67422.34;;;10.08;100.00
5988;BME280;3021;51.000;6.980;2024-01-30T07:55:57;67420.75;;;10.09;100.00
5988;BME280;3021;51.000;6.980;2024-01-30T07:58:22;67428.13;;;10.13;100.00
5988;BME280;3021;51.000;6.980;2024-01-30T08:00:49;67431.16;;;10.18;100.00
5988;BME280;3021;51.000;6.980;2024-01-30T08:03:14;67429.44;;;10.16;100.00
5988;BME280;3021;51.000;6.980;2024-01-30T08:05:41;67440.84;;;10.24;100.00
5988;BME280;3021;51.000;6.980;2024-01-30T08:08:07;67453.00;;;10.35;100.00
5988;BME280;3021;51.000;6.980;2024-01-30T08:10:32;67457.03;;;10.38;100.00
5988;BME280;3021;51.000;6.980;2024-01-30T08:12:57;67463.38;;;10.44;100.00
5988;BME280;3021;51.000;6.980;2024-01-30T08:15:23;67464.53;;;10.45;100.00
5988;BME280;3021;51.000;6.980;2024-01-30T08:17:48;67473.19;;;10.53;100.00
5988;BME280;3021;51.000;6.980;2024-01-30T08:20:13;67472.06;;;10.52;100.00
5988;BME280;3021;51.000;6.980;2024-01-30T08:22:39;67477.69;;;10.54;100.00
5988;BME280;3021;51.000;6.980;2024-01-30T08:25:08;67474.97;;;10.54;100.00
5988;BME280;3021;51.000;6.980;2024-01-30T08:27:35;67474.50;;;10.57;100.00
5988;BME280;3021;51.000;6.980;2024-01-30T08:30:05;67481.28;;;10.60;100.00
5988;BME280;3021;51.000;6.980;2024-01-30T08:32:31;67479.56;;;10.59;100.00
5988;BME280;3021;51.000;6.980;2024-01-30T08:34:56;67487.66;;;10.66;100.00
5988;BME280;3021;51.000;6.980;2024-01-30T08:37:22;67482.31;;;10.59;100.00
5988;BME280;3021;51.000;6.980;2024-01-30T08:39:47;67492.16;;;10.67;100.00
5988;BME280;3021;51.000;6.980;2024-01-30T08:42:12;67494.16;;;10.74;100.00
5988;BME280;3021;51.000;6.980;2024-01-30T08:44:38;67493.44;;;10.71;100.00
5988;BME280;3021;51.000;6.980;2024-01-30T08:47:04;67503.84;;;10.80;100.00
5988;BME280;3021;51.000;6.980;2024-01-30T08:49:29;67518.31;;;10.93;100.00
5988;BME280;3021;51.000;6.980;2024-01-30T08:51:55;67530.56;;;11.06;100.00
5988;BME280;3021;51.000;6.980;2024-01-30T08:54:21;67559.78;;;11.28;100.00
5988;BME280;3021;51.000;6.980;2024-01-30T08:56:46;67594.03;;;11.61;100.00
5988;BME280;3021;51.000;6.980;2024-01-30T08:59:11;67620.63;;;11.84;100.00
5988;BME280;3021;51.000;6.980;2024-01-30T09:01:37;67645.97;;;12.04;100.00
5988;BME280;3021;51.000;6.980;2024-01-30T09:04:02;67652.06;;;12.15;100.00
5988;BME280;3021;51.000;6.980;2024-01-30T09:06:27;67691.97;;;12.50;100.00
5988;BME280;3021;51.000;6.980;2024-01-30T09:08:54;67728.28;;;12.80;100.00
5988;BME280;3021;51.000;6.980;2024-01-30T09:11:19;67746.97;;;12.99;100.00
5988;BME280;3021;51.000;6.980;2024-01-30T09:13:44;67747.09;;;13.02;100.00
5988;BME280;3021;51.000;6.980;2024-01-30T09:16:10;67752.75;;;13.04;100.00
5988;BME280;3021;51.000;6.980;2024-01-30T09:18:35;67768.25;;;13.16;100.00
5988;BME280;3021;51.000;6.980;2024-01-30T09:21:00;67779.41;;;13.28;100.00
5988;BME280;3021;51.000;6.980;2024-01-30T09:23:27;67816.50;;;13.61;100.00
5988;BME280;3021;51.000;6.980;2024-01-30T09:25:53;67866.19;;;14.03;100.00
5988;BME280;3021;51.000;6.980;2024-01-30T09:28:18;67877.78;;;14.13;100.00
5988;BME280;3021;51.000;6.980;2024-01-30T09:30:44;67897.03;;;14.32;100.00
5988;BME280;3021;51.000;6.980;2024-01-30T09:33:09;67896.59;;;14.34;100.00
5988;BME280;3021;51.000;6.980;2024-01-30T09:35:35;67890.66;;;14.27;100.00
5988;BME280;3021;51.000;6.980;2024-01-30T09:38:01;67894.00;;;14.27;100.00
5988;BME280;3021;51.000;6.980;2024-01-30T09:40:26;67898.06;;;14.31;100.00
5988;BME280;3021;51.000;6.980;2024-01-30T09:42:53;67884.28;;;14.21;100.00
5988;BME280;3021;51.000;6.980;2024-01-30T09:45:19;67871.97;;;14.08;100.00
5988;BME280;3021;51.000;6.980;2024-01-30T09:47:45;67835.03;;;13.77;100.00
5988;BME280;3021;51.000;6.980;2024-01-30T09:50:12;67824.03;;;13.68;100.00
5988;BME280;3021;51.000;6.980;2024-01-30T09:52:38;67834.31;;;13.74;100.00
5988;BME280;3021;51.000;6.980;2024-01-30T09:55:04;67957.34;;;14.86;100.00
5988;BME280;3021;51.000;6.980;2024-01-30T09:57:30;67996.22;;;15.20;100.00
5988;BME280;3021;51.000;6.980;2024-01-30T09:59:55;67978.22;;;15.04;100.00
5988;BME280;3021;51.000;6.980;2024-01-30T10:02:21;67922.09;;;14.57;100.00
5988;BME280;3021;51.000;6.980;2024-01-30T10:04:51;67984.50;;;15.08;100.00
5988;BME280;3021;51.000;6.980;2024-01-30T10:07:20;68054.66;;;15.70;100.00
5988;BME280;3021;51.000;6.980;2024-01-30T10:09:46;68072.81;;;15.88;100.00
5988;BME280;3021;51.000;6.980;2024-01-30T10:12:11;68074.88;;;15.85;100.00
5988;BME280;3021;51.000;6.980;2024-01-30T10:14:41;68053.66;;;15.71;100.00
5988;BME280;3021;51.000;6.980;2024-01-30T10:17:10;68123.19;;;16.31;100.00
5988;BME280;3021;51.000;6.980;2024-01-30T10:19:40;68097.78;;;16.11;100.00
5988;BME280;3021;51.000;6.980;2024-01-30T10:22:05;68061.38;;;15.81;100.00
5988;BME280;3021;51.000;6.980;2024-01-30T10:24:32;68088.03;;;16.04;100.00
5988;BME280;3021;51.000;6.980;2024-01-30T10:26:58;68133.63;;;16.40;100.00
5988;BME280;3021;51.000;6.980;2024-01-30T10:29:24;68132.47;;;16.39;100.00
5988;BME280;3021;51.000;6.980;2024-01-30T10:32:03;68105.78;;;16.15;100.00
5988;BME280;3021;51.000;6.980;2024-01-30T10:34:29;68050.16;;;15.68;100.00
5988;BME280;3021;51.000;6.980;2024-01-30T10:37:08;67984.59;;;15.10;100.00
5988;BME280;3021;51.000;6.980;2024-01-30T10:39:39;67942.84;;;14.73;100.00
5988;BME280;3021;51.000;6.980;2024-01-30T10:42:05;67909.09;;;14.41;100.00
5988;BME280;3021;51.000;6.980;2024-01-30T10:47:12;67900.38;;;14.33;100.00
5988;BME280;3021;51.000;6.980;2024-01-30T10:49:41;67898.06;;;14.31;100.00
5988;BME280;3021;51.000;6.980;2024-01-30T10:52:13;67915.59;;;14.49;100.00
5988;BME280;3021;51.000;6.980;2024-01-30T10:54:40;67943.31;;;14.71;100.00
5988;BME280;3021;51.000;6.980;2024-01-30T10:57:05;67945.19;;;14.75;100.00
5988;BME280;3021;51.000;6.980;2024-01-30T10:59:31;67957.34;;;14.86;100.00
5988;BME280;3021;51.000;6.980;2024-01-30T11:01:58;67956.91;;;14.88;100.00
5988;BME280;3021;51.000;6.980;2024-01-30T11:04:24;67960.69;;;14.86;100.00
5988;BME280;3021;51.000;6.980;2024-01-30T11:06:50;67957.94;;;14.86;100.00
5988;BME280;3021;51.000;6.980;2024-01-30T11:09:17;67960.84;;;14.89;100.00
5988;BME280;3021;51.000;6.980;2024-01-30T11:12:12;67963.88;;;14.94;100.00
5988;BME280;3021;51.000;6.980;2024-01-30T11:14:37;67967.22;;;14.95;100.00
5988;BME280;3021;51.000;6.980;2024-01-30T11:17:05;67980.41;;;15.04;100.00
5988;BME280;3021;51.000;6.980;2024-01-30T11:19:31;67988.41;;;15.09;100.00
5988;BME280;3021;51.000;6.980;2024-01-30T11:21:57;67996.81;;;15.21;100.00
5988;BME280;3021;51.000;6.980;2024-01-30T11:24:25;68028.72;;;15.49;100.00
5988;BME280;3021;51.000;6.980;2024-01-30T11:26:58;68048.28;;;15.64;100.00
5988;BME280;3021;51.000;6.980;2024-01-30T11:29:27;68053.22;;;15.73;100.00
5988;BME280;3021;51.000;6.980;2024-01-30T11:31:57;68055.97;;;15.73;100.00
5988;BME280;3021;51.000;6.980;2024-01-30T11:34:22;68042.63;;;15.62;100.00
5988;BME280;3021;51.000;6.980;2024-01-30T11:36:52;68038.56;;;15.58;100.00
5988;BME280;3021;51.000;6.980;2024-01-30T11:39:20;68029.13;;;15.47;100.00
5988;BME280;3021;51.000;6.980;2024-01-30T11:41:49;68020.59;;;15.42;100.00
5988;BME280;3021;51.000;6.980;2024-01-30T11:44:16;68021.63;;;15.41;100.00
5988;BME280;3021;51.000;6.980;2024-01-30T11:46:41;68021.63;;;15.41;100.00
5988;BME280;3021;51.000;6.980;2024-01-30T11:49:06;68026.97;;;15.48;100.00
5988;BME280;3021;51.000;6.980;2024-01-30T11:51:32;68047.25;;;15.66;100.00
5988;BME280;3021;51.000;6.980;2024-01-30T11:53:57;68052.50;;;15.70;100.00
5988;BME280;3021;51.000;6.980;2024-01-30T11:56:24;68066.44;;;15.83;100.00
5988;BME280;3021;51.000;6.980;2024-01-30T11:58:50;68061.78;;;15.79;100.00
5988;BME280;3021;51.000;6.980;2024-01-30T12:01:17;68054.97;;;15.75;100.00
5988;BME280;3021;51.000;6.980;2024-01-30T12:03:43;68062.97;;;15.80;100.00
5988;BME280;3021;51.000;6.980;2024-01-30T12:06:15;68077.91;;;15.91;100.00
5988;BME280;3021;51.000;6.980;2024-01-30T12:08:40;68074.69;;;15.93;100.00
5988;BME280;3021;51.000;6.980;2024-01-30T12:11:06;68087.19;;;15.99;100.00
5988;BME280;3021;51.000;6.980;2024-01-30T12:13:32;68075.16;;;15.91;100.00
5988;BME280;3021;51.000;6.980;2024-01-30T12:15:58;68078.78;;;15.96;100.00
5988;BME280;3021;51.000;6.980;2024-01-30T12:18:23;68096.47;;;16.07;100.00
5988;BME280;3021;51.000;6.980;2024-01-30T12:20:59;68102.44;;;16.15;100.00
5988;BME280;3021;51.000;6.980;2024-01-30T12:23:28;68103.00;;;16.15;100.00
5988;BME280;3021;51.000;6.980;2024-01-30T12:25:54;68085.59;;;16.00;100.00
5988;BME280;3021;51.000;6.980;2024-01-30T12:28:20;68096.47;;;16.07;100.00
5988;BME280;3021;51.000;6.980;2024-01-30T12:30:45;68113.34;;;16.22;100.00
5988;BME280;3021;51.000;6.980;2024-01-30T12:33:19;68115.78;;;16.27;100.00
5988;BME280;3021;51.000;6.980;2024-01-30T12:35:48;68112.88;;;16.24;100.00
5988;BME280;3021;51.000;6.980;2024-01-30T12:38:14;68111.59;;;16.20;100.00
5988;BME280;3021;51.000;6.980;2024-01-30T12:40:39;68125.06;;;16.35;100.00
5988;BME280;3021;51.000;6.980;2024-01-30T12:43:05;68116.34;;;16.27;100.00
5988;BME280;3021;51.000;6.980;2024-01-30T12:45:30;68113.44;;;16.24;100.00
5988;BME280;3021;51.000;6.980;2024-01-30T12:47:55;68115.66;;;16.24;100.00
5988;BME280;3021;51.000;6.980;2024-01-30T12:50:21;68114.63;;;16.26;100.00
5988;BME280;3021;51.000;6.980;2024-01-30T12:52:47;68126.94;;;16.39;100.00
5988;BME280;3021;51.000;6.980;2024-01-30T12:55:13;68134.94;;;16.44;100.00
5988;BME280;3021;51.000;6.980;2024-01-30T12:57:38;68144.94;;;16.55;100.00
5988;BME280;3021;51.000;6.980;2024-01-30T13:00:05;68145.97;;;16.53;100.00
5988;BME280;3021;51.000;6.980;2024-01-30T13:02:33;68137.41;;;16.48;100.00
5988;BME280;3021;51.000;6.980;2024-01-30T13:05:02;68127.38;;;16.37;100.00
5988;BME280;3021;51.000;6.980;2024-01-30T13:07:28;68123.78;;;16.31;100.00
5988;BME280;3021;51.000;6.980;2024-01-30T13:09:53;68111.28;;;16.25;100.00
5988;BME280;3021;51.000;6.980;2024-01-30T13:12:18;68095.59;;;16.11;100.00
5988;BME280;3021;51.000;6.980;2024-01-30T13:14:44;68082.13;;;15.97;100.00